Weather History for Hazen, ND

Change the Weather History Date:

Friday, April 26, 2013

  Actual Average (KN60) Record (KN60)
Temperature  
Mean Temperature 50 °F -  
Max Temperature 73 °F 58 °F 75 °F (2007)
Min Temperature 26 °F 33 °F 16 °F (2002)
Degree Days  
Heating Degree Days 16    
Moisture  
Dew Point 28 °F    
Average Humidity 51    
Maximum Humidity 93    
Minimum Humidity 15    
Precipitation  
Precipitation 0.00 in - - ()
Sea Level Pressure  
Sea Level Pressure 29.98 in    
Wind  
Wind Speed 6 mph (SW)    
Max Wind Speed 14 mph    
Max Gust Speed 24 mph    
Visibility 10 miles    
Events      
Averages and records for this station are not official NWS values.
T = Trace of Precipitation, MM = Missing Value Source: NWS Daily Summary

Daily Weather History Graph

Daily Weather History Graph

Search for Another Location

Airport:

Trip Planner

Search our weather history database for the weather conditions in past years. The results will help you decide how hot, cold, wet, or windy it might be!

Date:

Astronomy

Apr. 26, 2013 Rise Set
Actual Time 6:37 AM CDT 8:51 PM CDT
Civil Twilight 6:04 AM CDT 9:24 PM CDT
Nautical Twilight 5:22 AM CDT 10:06 PM CDT
Astronomical Twilight 4:36 AM CDT 10:53 PM CDT
Moon 10:21 PM CDT (4/26) 7:03 AM CDT (4/26)
Length of Visible Light 15h 20m
Length of Day
14h 13m
Full, 99% of the Moon is Illuminated
Apr 26
Full
May 2
Last Quarter
May 9
New
May 17
First Quarter
May 24
Full

Hourly Weather History & Observations

Time (CDT) Temp. Windchill Dew Point Humidity Pressure Visibility Wind Dir Wind Speed Gust Speed Precip Events Conditions
12:15 AM 33.8 °F 27.7 °F 28.4 °F 81% 29.89 in 10.0 mi SE 6.9 mph - N/A   Partly Cloudy
12:35 AM 32.0 °F 28.7 °F 26.6 °F 80% 29.90 in 10.0 mi South 3.5 mph - N/A   Clear
12:55 AM 30.2 °F 26.7 °F 26.6 °F 86% 29.89 in 10.0 mi SSE 3.5 mph - N/A   Clear
1:15 AM 28.4 °F 23.3 °F 26.6 °F 93% 29.90 in 10.0 mi South 4.6 mph - N/A   Clear
1:35 AM 28.4 °F 24.6 °F 26.6 °F 93% 29.90 in 10.0 mi South 3.5 mph - N/A   Partly Cloudy
1:55 AM 28.4 °F 24.6 °F 24.8 °F 86% 29.90 in 10.0 mi South 3.5 mph - N/A   Partly Cloudy
2:15 AM 26.6 °F - 24.8 °F 93% 29.91 in 10.0 mi Calm Calm - N/A   Clear
2:35 AM 30.2 °F 25.4 °F 26.6 °F 86% 29.91 in 10.0 mi SW 4.6 mph - N/A   Clear
2:55 AM 28.4 °F 24.6 °F 26.6 °F 93% 29.91 in 10.0 mi South 3.5 mph - N/A   Clear
3:15 AM 30.2 °F 24.3 °F 28.4 °F 93% 29.91 in 10.0 mi WSW 5.8 mph - N/A   Clear
3:35 AM 32.0 °F 27.5 °F 28.4 °F 87% 29.91 in 10.0 mi SW 4.6 mph - N/A   Clear
3:55 AM 28.4 °F 24.6 °F 24.8 °F 86% 29.92 in 10.0 mi SW 3.5 mph - N/A   Clear
4:15 AM 30.2 °F 24.3 °F 26.6 °F 86% 29.92 in 10.0 mi WSW 5.8 mph - N/A   Clear
4:35 AM 32.0 °F 28.7 °F 28.4 °F 87% 29.92 in 10.0 mi WSW 3.5 mph - N/A   Clear
4:55 AM 32.0 °F 27.5 °F 28.4 °F 87% 29.93 in 10.0 mi West 4.6 mph - N/A   Clear
5:15 AM 30.2 °F 25.4 °F 26.6 °F 86% 29.94 in 10.0 mi WSW 4.6 mph - N/A   Clear
5:35 AM 28.4 °F 24.6 °F 26.6 °F 93% 29.94 in 10.0 mi WSW 3.5 mph - N/A   Clear
5:55 AM 28.4 °F 21.2 °F 26.6 °F 93% 29.95 in 10.0 mi WSW 6.9 mph - N/A   Clear
6:15 AM 32.0 °F 24.2 °F 28.4 °F 87% 29.96 in 10.0 mi WSW 9.2 mph - N/A   Clear
6:55 AM 28.4 °F 21.2 °F 26.6 °F 93% 29.98 in 10.0 mi WSW 6.9 mph - N/A   Clear
7:15 AM 30.2 °F 23.4 °F 26.6 °F 86% 29.98 in 10.0 mi West 6.9 mph - N/A   Clear
7:35 AM 32.0 °F 25.6 °F 28.4 °F 87% 29.99 in 10.0 mi WSW 6.9 mph - N/A   Clear
7:55 AM 32.0 °F 26.4 °F 30.2 °F 93% 30.00 in 10.0 mi West 5.8 mph - N/A   Clear
8:15 AM 35.6 °F 29.2 °F 32.0 °F 87% 30.00 in 10.0 mi West 8.1 mph - N/A   Clear
8:35 AM 37.4 °F 32.8 °F 32.0 °F 81% 30.01 in 10.0 mi West 5.8 mph - N/A   Clear
8:55 AM 41.0 °F 38.0 °F 32.0 °F 70% 30.01 in 10.0 mi West 4.6 mph - N/A   Clear
9:15 AM 44.6 °F 40.2 °F 33.8 °F 66% 30.02 in 10.0 mi WSW 8.1 mph - N/A   Clear
9:35 AM 48.2 °F - 33.8 °F 58% 30.02 in 10.0 mi WSW 10.4 mph - N/A   Clear
9:55 AM 50.0 °F - 32.0 °F 50% 30.02 in 10.0 mi West 12.7 mph - N/A   Clear
10:15 AM 53.6 °F - 32.0 °F 44% 30.03 in 10.0 mi West 10.4 mph - N/A   Clear
10:35 AM 55.4 °F - 32.0 °F 41% 30.03 in 10.0 mi WSW 9.2 mph - N/A   Clear
10:55 AM 59.0 °F - 32.0 °F 36% 30.04 in 10.0 mi WSW 9.2 mph - N/A   Clear
11:15 AM 62.6 °F - 32.0 °F 32% 30.04 in 10.0 mi West 6.9 mph - N/A   Clear
11:35 AM 64.4 °F - 32.0 °F 30% 30.04 in 10.0 mi WSW 5.8 mph - N/A   Clear
11:55 AM 66.2 °F - 32.0 °F 28% 30.04 in 10.0 mi West 9.2 mph - N/A   Clear
12:15 PM 68.0 °F - 28.4 °F 23% 30.04 in 10.0 mi SW 5.8 mph - N/A   Clear
12:35 PM 68.0 °F - 24.8 °F 20% 30.03 in 10.0 mi SW 12.7 mph - N/A   Clear
12:55 PM 68.0 °F - 24.8 °F 20% 30.03 in 10.0 mi SW 6.9 mph - N/A   Clear
1:15 PM 69.8 °F - 24.8 °F 18% 30.02 in 10.0 mi WSW 6.9 mph - N/A   Clear
1:35 PM 71.6 °F - 26.6 °F 19% 30.02 in 10.0 mi SW 8.1 mph - N/A   Clear
1:55 PM 71.6 °F - 24.8 °F 17% 30.01 in 10.0 mi West 9.2 mph 16.1 mph N/A   Clear
2:15 PM 71.6 °F - 24.8 °F 17% 30.01 in 10.0 mi WSW 10.4 mph 19.6 mph N/A   Clear
2:35 PM 71.6 °F - 24.8 °F 17% 30.01 in 10.0 mi SW 11.5 mph 17.3 mph N/A   Clear
2:55 PM 73.4 °F - 24.8 °F 16% 30.00 in 10.0 mi SW 9.2 mph 18.4 mph N/A   Clear
3:15 PM 73.4 °F - 24.8 °F 16% 30.00 in 10.0 mi SSW 11.5 mph 17.3 mph N/A   Clear
3:35 PM 73.4 °F - 24.8 °F 16% 30.00 in 10.0 mi West 12.7 mph 17.3 mph N/A   Clear
3:55 PM 73.4 °F - 24.8 °F 16% 30.00 in 10.0 mi SW 8.1 mph - N/A   Clear
4:15 PM 73.4 °F - 24.8 °F 16% 29.99 in 10.0 mi WSW 12.7 mph - N/A   Clear
4:35 PM 73.4 °F - 24.8 °F 16% 29.99 in 10.0 mi West 10.4 mph 17.3 mph N/A   Clear
4:55 PM 73.4 °F - 24.8 °F 16% 29.99 in 10.0 mi SW 13.8 mph 19.6 mph N/A   Clear
5:15 PM 73.4 °F - 23.0 °F 15% 29.99 in 10.0 mi SW 11.5 mph 24.2 mph N/A   Clear
5:35 PM 73.4 °F - 23.0 °F 15% 29.98 in 10.0 mi SW 9.2 mph - N/A   Clear
5:55 PM 73.4 °F - 23.0 °F 15% 29.98 in 10.0 mi SW 13.8 mph 19.6 mph N/A   Clear
6:15 PM 73.4 °F - 23.0 °F 15% 29.98 in 10.0 mi WSW 9.2 mph 16.1 mph N/A   Clear
6:35 PM 73.4 °F - 23.0 °F 15% 29.98 in 10.0 mi WSW 11.5 mph 16.1 mph N/A   Clear
6:55 PM 73.4 °F - 23.0 °F 15% 29.97 in 10.0 mi SW 8.1 mph - N/A   Clear
7:15 PM 73.4 °F - 23.0 °F 15% 29.97 in 10.0 mi WSW 9.2 mph - N/A   Clear
7:35 PM 71.6 °F - 23.0 °F 16% 29.97 in 10.0 mi SW 8.1 mph - N/A   Clear
7:55 PM 71.6 °F - 24.8 °F 17% 29.97 in 10.0 mi SSW 5.8 mph - N/A   Clear
8:15 PM 64.4 °F - 28.4 °F 26% 29.97 in 10.0 mi South 6.9 mph - N/A   Clear
8:35 PM 59.0 °F - 32.0 °F 36% 29.97 in 10.0 mi South 5.8 mph - N/A   Clear
8:55 PM 55.4 °F - 32.0 °F 41% 29.96 in 10.0 mi South 10.4 mph - N/A   Clear
9:15 PM 51.8 °F - 32.0 °F 47% 29.96 in 10.0 mi South 11.5 mph - N/A   Clear
9:35 PM 51.8 °F - 32.0 °F 47% 29.97 in 10.0 mi South 10.4 mph - N/A   Clear
9:55 PM 50.0 °F - 32.0 °F 50% 29.98 in 10.0 mi South 10.4 mph - N/A   Clear
10:15 PM 53.6 °F - 32.0 °F 44% 29.98 in 10.0 mi Calm Calm - N/A   Clear
10:35 PM 50.0 °F - 32.0 °F 50% 29.98 in 10.0 mi Calm Calm - N/A   Clear
10:55 PM 46.4 °F - 32.0 °F 57% 29.98 in 10.0 mi Calm Calm - N/A   Clear
11:15 PM 46.4 °F - 32.0 °F 57% 29.98 in 10.0 mi Calm Calm - N/A   Clear
11:35 PM 44.6 °F 43.1 °F 32.0 °F 61% 29.97 in 10.0 mi South 3.5 mph - N/A   Clear
11:55 PM 51.8 °F - 32.0 °F 47% 29.97 in 10.0 mi NW 3.5 mph - N/A   Clear